Time;durP1;ratioP1;P1;durP2;ratioP2;P2;SDS_P1;SDS_P2;PMS_P1;PMS_P2;Temp;Humidity;BMP_temperature;BMP_pressure;BME280_temperature;BME280_humidity;BME280_pressure;Samples;Min_cycle;Max_cycle;Signal;HPM_P1;HPM_P2
2023/11/30 00:00:01;;;;;;;6.07;3.50;;;;;;;-1.16;100.00;95991.78;5049939;28;20039;-64
2023/11/30 00:02:32;;;;;;;7.80;3.28;;;;;;;-1.50;100.00;95991.91;5045390;28;20052;-63
2023/11/30 00:04:58;;;;;;;7.00;3.35;;;;;;;-1.64;100.00;95997.25;5043318;28;20041;-64
2023/11/30 00:07:25;;;;;;;6.30;3.70;;;;;;;-1.63;100.00;95990.09;5046468;28;20068;-63
2023/11/30 00:09:51;;;;;;;6.93;4.30;;;;;;;-1.62;100.00;95981.94;5038868;28;20041;-63
2023/11/30 00:12:18;;;;;;;8.55;3.63;;;;;;;-1.58;100.00;95985.78;5041018;28;20036;-64
2023/11/30 00:14:44;;;;;;;5.55;3.35;;;;;;;-1.50;100.00;95982.13;5040170;28;20028;-63
2023/11/30 00:17:11;;;;;;;7.15;3.70;;;;;;;-1.47;100.00;95978.22;5040381;28;20037;-63
2023/11/30 00:19:38;;;;;;;5.93;3.40;;;;;;;-1.50;100.00;95971.50;5054511;28;20554;-63
2023/11/30 00:22:04;;;;;;;6.32;3.38;;;;;;;-1.60;100.00;95971.94;5038996;28;20049;-64
2023/11/30 00:24:30;;;;;;;6.53;3.10;;;;;;;-1.51;100.00;95963.75;5043921;28;20042;-64
2023/11/30 00:26:57;;;;;;;7.65;3.40;;;;;;;-1.66;100.00;95969.28;5046991;28;20688;-64
2023/11/30 00:29:23;;;;;;;5.28;2.90;;;;;;;-1.71;100.00;95957.47;5039285;28;20110;-64
2023/11/30 00:31:50;;;;;;;6.97;3.55;;;;;;;-1.58;100.00;95963.75;5045584;28;20604;-64
2023/11/30 00:34:17;;;;;;;6.38;3.10;;;;;;;-1.46;100.00;95966.56;5045325;28;20051;-64
2023/11/30 00:36:43;;;;;;;5.65;2.97;;;;;;;-1.36;100.00;95955.50;5036025;28;20090;-63
2023/11/30 00:39:10;;;;;;;6.40;3.33;;;;;;;-1.39;100.00;95948.78;5044732;28;20515;-65
2023/11/30 00:41:37;;;;;;;7.15;3.15;;;;;;;-1.32;100.00;95943.44;5032450;28;20063;-63
2023/11/30 00:44:04;;;;;;;7.03;3.13;;;;;;;-1.40;100.00;95936.50;5037699;28;20087;-64
2023/11/30 00:46:30;;;;;;;6.32;3.40;;;;;;;-1.43;100.00;95934.28;5042750;28;20349;-63
2023/11/30 00:48:57;;;;;;;5.50;2.72;;;;;;;-1.52;100.00;95930.25;5053195;28;20063;-64
2023/11/30 00:51:23;;;;;;;5.93;3.20;;;;;;;-1.43;100.00;95931.63;5042370;28;20497;-64
2023/11/30 00:53:50;;;;;;;5.05;2.83;;;;;;;-1.14;100.00;95923.31;5035247;28;20720;-64
2023/11/30 00:56:17;;;;;;;7.03;3.92;;;;;;;-1.05;100.00;95922.03;5042479;28;20101;-64
2023/11/30 00:58:43;;;;;;;5.85;3.38;;;;;;;-1.24;100.00;95921.94;5039640;28;20052;-65
2023/11/30 01:01:10;;;;;;;5.20;3.20;;;;;;;-1.47;100.00;95930.44;5041834;28;20048;-64
2023/11/30 01:03:37;;;;;;;7.50;3.35;;;;;;;-1.57;100.00;95929.06;5039596;28;20049;-63
2023/11/30 01:06:05;;;;;;;7.30;3.05;;;;;;;-1.66;100.00;95934.78;5034145;28;20048;-63
2023/11/30 01:08:31;;;;;;;5.00;2.97;;;;;;;-1.74;100.00;95935.81;5035476;28;20069;-63
2023/11/30 01:10:58;;;;;;;5.63;3.45;;;;;;;-1.75;100.00;95937.69;5043518;28;20505;-63
2023/11/30 01:13:24;;;;;;;5.75;3.40;;;;;;;-1.74;100.00;95941.13;5046107;28;20044;-63
2023/11/30 01:15:51;;;;;;;5.32;3.00;;;;;;;-1.82;100.00;95942.19;5056218;28;20041;-63
2023/11/30 01:18:17;;;;;;;6.07;3.72;;;;;;;-1.85;100.00;95943.41;5043559;28;20415;-63
2023/11/30 01:20:44;;;;;;;6.60;3.40;;;;;;;-1.86;100.00;95948.94;5039691;28;20053;-63
2023/11/30 01:23:11;;;;;;;5.80;3.22;;;;;;;-1.74;100.00;95938.47;5039122;28;20052;-63
2023/11/30 01:25:37;;;;;;;7.15;3.20;;;;;;;-1.62;100.00;95928.03;5043040;28;20045;-63
2023/11/30 01:28:04;;;;;;;6.75;2.70;;;;;;;-1.51;100.00;95930.03;5052389;28;20162;-63
2023/11/30 01:30:30;;;;;;;5.20;2.55;;;;;;;-1.50;100.00;95923.72;5048939;28;20052;-63
2023/11/30 01:32:58;;;;;;;7.88;2.67;;;;;;;-1.53;100.00;95925.94;5045001;28;20127;-63
2023/11/30 01:35:28;;;;;;;6.47;3.00;;;;;;;-1.36;100.00;95923.66;5032145;28;20655;-64
2023/11/30 01:37:55;;;;;;;6.10;3.08;;;;;;;-1.29;100.00;95920.94;5049254;28;20504;-63
2023/11/30 01:40:22;;;;;;;5.25;2.55;;;;;;;-1.23;100.00;95928.88;5042517;28;20124;-63
2023/11/30 01:42:50;;;;;;;4.68;2.55;;;;;;;-1.26;100.00;95923.19;5039658;28;20052;-66
2023/11/30 01:45:16;;;;;;;5.40;3.03;;;;;;;-1.28;100.00;95923.41;5062278;28;20036;-67
2023/11/30 01:47:44;;;;;;;5.65;2.60;;;;;;;-1.21;100.00;95926.03;5045522;28;20707;-64
2023/11/30 01:50:11;;;;;;;6.68;3.22;;;;;;;-1.43;100.00;95915.72;5034288;28;20041;-63
2023/11/30 01:52:40;;;;;;;7.40;3.13;;;;;;;-1.65;100.00;95917.84;5039067;28;20045;-64
2023/11/30 01:55:08;;;;;;;4.50;2.80;;;;;;;-1.73;100.00;95908.28;5028935;28;20184;-64
2023/11/30 01:57:35;;;;;;;5.13;2.72;;;;;;;-1.65;100.00;95904.56;5044956;28;20095;-63
2023/11/30 02:00:04;;;;;;;5.20;2.80;;;;;;;-1.63;100.00;95919.25;5029174;28;20076;-64
2023/11/30 02:02:38;;;;;;;6.78;3.00;;;;;;;-1.65;100.00;95915.19;5036419;28;20124;-63
2023/11/30 02:05:05;;;;;;;6.20;2.95;;;;;;;-1.63;100.00;95913.13;5057248;28;20037;-64
2023/11/30 02:07:31;;;;;;;5.43;3.00;;;;;;;-1.71;100.00;95908.88;5037070;28;20037;-64
2023/11/30 02:09:58;;;;;;;6.25;2.88;;;;;;;-1.71;100.00;95895.59;5033979;28;20504;-64
2023/11/30 02:12:25;;;;;;;8.57;3.75;;;;;;;-1.76;100.00;95890.13;5034459;28;20045;-64
2023/11/30 02:14:51;;;;;;;6.35;3.42;;;;;;;-1.82;100.00;95889.09;5031631;28;20136;-64
2023/11/30 02:17:18;;;;;;;6.68;2.92;;;;;;;-1.83;100.00;95879.53;5038688;28;20029;-64
2023/11/30 02:19:44;;;;;;;5.93;2.90;;;;;;;-1.90;100.00;95884.03;5038985;28;20052;-64
2023/11/30 02:22:12;;;;;;;5.45;2.90;;;;;;;-1.94;100.00;95881.00;5032798;28;20098;-63
2023/11/30 02:24:38;;;;;;;6.78;2.80;;;;;;;-2.03;100.00;95883.06;5038568;28;20095;-65
2023/11/30 02:27:05;;;;;;;4.78;2.55;;;;;;;-2.18;100.00;95885.94;5035821;28;20056;-63
2023/11/30 02:29:32;;;;;;;8.30;3.92;;;;;;;-2.55;100.00;95890.91;5034821;28;20036;-64
2023/11/30 02:31:58;;;;;;;5.35;3.00;;;;;;;-2.52;100.00;95886.00;5046012;28;20056;-63
2023/11/30 02:34:25;;;;;;;7.68;3.30;;;;;;;-2.48;100.00;95873.16;5041914;28;20041;-63
2023/11/30 02:36:51;;;;;;;7.70;4.00;;;;;;;-2.40;100.00;95888.03;5022800;28;20172;-64
2023/11/30 02:39:19;;;;;;;6.80;3.30;;;;;;;-2.23;100.00;95875.16;5033365;28;20470;-64
2023/11/30 02:41:45;;;;;;;6.45;3.00;;;;;;;-2.26;100.00;95876.38;5040234;28;20032;-64
2023/11/30 02:44:12;;;;;;;5.85;2.95;;;;;;;-2.25;100.00;95864.75;5045624;28;20041;-63
2023/11/30 02:46:39;;;;;;;5.45;2.95;;;;;;;-2.11;100.00;95868.19;5041145;28;20091;-63
2023/11/30 02:49:06;;;;;;;5.97;3.30;;;;;;;-2.11;100.00;95862.06;5035806;28;20568;-63
2023/11/30 02:51:33;;;;;;;8.27;3.75;;;;;;;-2.15;100.00;95871.44;5037312;28;20512;-64
2023/11/30 02:53:59;;;;;;;7.05;3.50;;;;;;;-2.17;100.00;95870.84;5040330;28;20548;-63
2023/11/30 02:56:26;;;;;;;6.07;3.80;;;;;;;-2.07;100.00;95857.16;5034977;28;20056;-63
2023/11/30 02:58:53;;;;;;;5.40;2.55;;;;;;;-2.23;100.00;95865.38;5033188;28;20052;-63
2023/11/30 03:01:19;;;;;;;8.15;3.13;;;;;;;-2.30;100.00;95867.22;5039514;28;20713;-63
2023/11/30 03:03:46;;;;;;;7.57;3.13;;;;;;;-2.31;100.00;95868.25;5031436;28;20574;-63
2023/11/30 03:06:13;;;;;;;6.05;3.30;;;;;;;-2.28;100.00;95874.97;5036384;28;20037;-64
2023/11/30 03:08:39;;;;;;;5.45;2.92;;;;;;;-2.29;100.00;95865.38;5037612;28;20041;-63
2023/11/30 03:11:06;;;;;;;5.20;3.20;;;;;;;-2.21;100.00;95865.16;5033358;28;20044;-63
2023/11/30 03:13:32;;;;;;;6.22;2.90;;;;;;;-2.16;100.00;95861.88;5030097;28;20052;-64
2023/11/30 03:15:59;;;;;;;5.72;3.22;;;;;;;-2.13;100.00;95858.81;5035177;28;20528;-64
2023/11/30 03:18:26;;;;;;;7.50;3.40;;;;;;;-2.18;100.00;95861.28;5042977;28;20128;-64
2023/11/30 03:20:52;;;;;;;4.80;2.97;;;;;;;-2.20;100.00;95855.34;5043808;28;20451;-64
2023/11/30 03:23:19;;;;;;;5.20;2.60;;;;;;;-2.21;100.00;95862.53;5035242;28;20057;-64
2023/11/30 03:25:45;;;;;;;5.10;3.03;;;;;;;-2.26;100.00;95852.53;5040659;28;20049;-63
2023/11/30 03:28:12;;;;;;;6.75;3.28;;;;;;;-2.23;100.00;95832.72;5037898;28;20115;-63
2023/11/30 03:30:39;;;;;;;5.38;3.03;;;;;;;-2.37;100.00;95829.28;5029146;28;20064;-64
2023/11/30 03:33:06;;;;;;;5.68;3.33;;;;;;;-2.49;100.00;95824.66;5052750;28;20060;-64
2023/11/30 03:35:32;;;;;;;4.57;2.63;;;;;;;-2.39;100.00;95821.53;5051756;28;20115;-63
2023/11/30 03:37:59;;;;;;;6.90;3.22;;;;;;;-2.38;100.00;95814.41;5041218;28;20116;-64
2023/11/30 03:40:25;;;;;;;5.53;3.20;;;;;;;-2.36;100.00;95810.53;5033728;28;20091;-63
2023/11/30 03:42:52;;;;;;;5.47;2.97;;;;;;;-2.35;100.00;95814.00;5041936;28;20076;-63
2023/11/30 03:45:21;;;;;;;5.32;3.42;;;;;;;-2.34;100.00;95815.63;5048630;28;20045;-63
2023/11/30 03:47:47;;;;;;;5.15;2.95;;;;;;;-2.37;100.00;95816.84;5042258;28;20060;-63
2023/11/30 03:50:14;;;;;;;6.05;2.92;;;;;;;-2.36;100.00;95815.84;5046246;28;20041;-63
2023/11/30 03:52:40;;;;;;;4.82;2.80;;;;;;;-2.22;100.00;95816.63;5038577;28;20500;-64
2023/11/30 03:55:07;;;;;;;6.03;3.53;;;;;;;-2.27;100.00;95813.78;5041758;28;20052;-64
2023/11/30 03:57:34;;;;;;;6.18;3.25;;;;;;;-2.26;100.00;95806.63;5044992;28;20439;-63
2023/11/30 04:00:00;;;;;;;4.88;2.88;;;;;;;-2.21;100.00;95790.91;5049235;28;20098;-64
2023/11/30 04:02:29;;;;;;;4.80;2.95;;;;;;;-2.20;100.00;95795.19;5042360;28;20048;-64
2023/11/30 04:04:56;;;;;;;6.20;2.85;;;;;;;-2.26;100.00;95786.22;5040577;28;20235;-64
2023/11/30 04:07:29;;;;;;;6.45;3.15;;;;;;;-2.03;100.00;95776.16;5040094;28;20033;-64
2023/11/30 04:09:56;;;;;;;5.78;3.08;;;;;;;-1.94;100.00;95780.19;5034465;28;20412;-64
2023/11/30 04:12:22;;;;;;;6.60;2.85;;;;;;;-1.93;100.00;95781.81;5047222;28;20052;-64
2023/11/30 04:14:49;;;;;;;4.55;2.72;;;;;;;-1.89;100.00;95776.88;5049024;28;20041;-64
2023/11/30 04:17:15;;;;;;;7.30;2.97;;;;;;;-1.88;100.00;95781.19;5051235;28;20033;-63
2023/11/30 04:19:42;;;;;;;6.15;3.20;;;;;;;-1.84;100.00;95761.16;5041661;28;20053;-63
2023/11/30 04:22:10;;;;;;;4.82;2.70;;;;;;;-1.83;100.00;95760.13;5037617;28;20108;-63
2023/11/30 04:24:37;;;;;;;5.43;3.15;;;;;;;-1.75;100.00;95751.91;5051427;28;20542;-63
2023/11/30 04:27:03;;;;;;;5.22;2.92;;;;;;;-1.79;100.00;95747.25;5039371;28;20120;-63
2023/11/30 04:29:30;;;;;;;7.97;3.47;;;;;;;-1.65;100.00;95750.63;5048322;28;20045;-63
2023/11/30 04:31:57;;;;;;;6.47;2.95;;;;;;;-1.72;100.00;95743.53;5040786;28;20067;-63
2023/11/30 04:34:23;;;;;;;6.53;2.80;;;;;;;-1.72;100.00;95745.38;5035362;28;20049;-64
2023/11/30 04:36:50;;;;;;;5.40;3.47;;;;;;;-1.65;100.00;95754.09;5028537;28;20038;-63
2023/11/30 04:39:17;;;;;;;7.05;3.10;;;;;;;-1.73;100.00;95747.19;5040725;28;20536;-64
2023/11/30 04:41:44;;;;;;;7.60;3.53;;;;;;;-1.80;100.00;95753.56;5049516;28;20055;-63
2023/11/30 04:44:11;;;;;;;5.43;3.05;;;;;;;-1.83;100.00;95752.16;5050085;28;20040;-64
2023/11/30 04:46:37;;;;;;;6.00;3.25;;;;;;;-1.87;100.00;95750.97;5043298;28;20041;-64
2023/11/30 04:49:04;;;;;;;5.13;3.28;;;;;;;-1.88;100.00;95759.97;5029490;28;20605;-63
2023/11/30 04:51:31;;;;;;;5.05;3.40;;;;;;;-1.89;100.00;95755.66;5034409;28;20041;-64
2023/11/30 04:53:57;;;;;;;6.40;3.10;;;;;;;-2.02;100.00;95749.44;5040865;28;20142;-64
2023/11/30 04:56:24;;;;;;;6.47;3.80;;;;;;;-2.01;100.00;95743.09;5039473;28;20479;-64
2023/11/30 04:58:51;;;;;;;5.63;2.92;;;;;;;-2.09;100.00;95743.31;5042288;28;20044;-64
2023/11/30 05:01:17;;;;;;;5.18;2.95;;;;;;;-2.11;100.00;95742.72;5037435;28;20037;-64
2023/11/30 05:03:44;;;;;;;8.32;3.95;;;;;;;-2.15;100.00;95737.03;5036188;28;20067;-64
2023/11/30 05:06:11;;;;;;;6.03;3.33;;;;;;;-2.16;100.00;95737.22;5034965;28;20042;-65
2023/11/30 05:08:38;;;;;;;7.65;3.20;;;;;;;-2.20;100.00;95746.63;5039272;28;20052;-63
2023/11/30 05:11:04;;;;;;;6.35;3.35;;;;;;;-2.19;100.00;95749.09;5042368;28;20049;-64
2023/11/30 05:13:31;;;;;;;6.07;3.72;;;;;;;-2.04;100.00;95746.16;5036681;28;20045;-64
2023/11/30 05:15:59;;;;;;;8.50;4.50;;;;;;;-1.99;100.00;95735.72;5034046;28;20075;-64
2023/11/30 05:18:25;;;;;;;7.68;4.30;;;;;;;-2.04;100.00;95740.84;5039690;28;20029;-64
2023/11/30 05:20:52;;;;;;;9.68;4.90;;;;;;;-1.94;100.00;95728.97;5047954;28;20102;-64
2023/11/30 05:23:18;;;;;;;8.13;4.43;;;;;;;-1.88;100.00;95733.44;5046235;28;20044;-64
2023/11/30 05:25:45;;;;;;;8.25;5.00;;;;;;;-1.97;100.00;95728.38;5040115;28;20049;-64
2023/11/30 05:28:12;;;;;;;8.13;4.60;;;;;;;-2.04;100.00;95735.53;5054555;28;20032;-64
2023/11/30 05:30:38;;;;;;;10.18;4.20;;;;;;;-2.06;100.00;95737.59;5044778;28;20052;-64
2023/11/30 05:33:06;;;;;;;7.68;4.70;;;;;;;-2.05;100.00;95736.56;5043595;28;20056;-64
2023/11/30 05:35:34;;;;;;;9.40;5.60;;;;;;;-2.17;100.00;95739.09;5045428;28;20190;-64
2023/11/30 05:38:02;;;;;;;7.65;4.55;;;;;;;-2.42;100.00;95745.09;5038915;28;20099;-64
2023/11/30 05:40:29;;;;;;;8.30;4.70;;;;;;;-2.59;100.00;95736.78;5045839;28;20056;-63
2023/11/30 05:42:56;;;;;;;9.77;5.75;;;;;;;-2.40;100.00;95740.38;5042446;28;20052;-63
2023/11/30 05:45:22;;;;;;;11.73;5.90;;;;;;;-2.38;100.00;95743.66;5035310;28;20225;-63
2023/11/30 05:47:49;;;;;;;8.60;5.03;;;;;;;-2.38;100.00;95741.00;5038530;28;20040;-63
2023/11/30 05:50:15;;;;;;;10.00;6.22;;;;;;;-2.51;100.00;95733.91;5051986;28;20044;-63
2023/11/30 05:52:42;;;;;;;9.95;5.53;;;;;;;-2.59;100.00;95739.44;5043918;28;20094;-63
2023/11/30 05:55:08;;;;;;;10.45;6.00;;;;;;;-2.55;100.00;95727.41;5043625;28;20120;-64
2023/11/30 05:57:37;;;;;;;10.57;6.45;;;;;;;-2.64;100.00;95726.00;5039803;28;20041;-64
2023/11/30 06:00:05;;;;;;;11.68;6.18;;;;;;;-2.67;100.00;95714.00;5046398;28;20713;-64
2023/11/30 06:02:40;;;;;;;11.63;4.95;;;;;;;-2.84;100.00;95704.88;5043701;28;20048;-63
2023/11/30 06:05:07;;;;;;;21.75;11.82;;;;;;;-2.91;100.00;95713.63;5031777;28;20582;-63
2023/11/30 06:07:35;;;;;;;11.52;6.85;;;;;;;-3.05;100.00;95715.53;5043529;28;20975;-64
2023/11/30 06:10:02;;;;;;;16.92;9.23;;;;;;;-3.07;100.00;95720.19;5049273;28;20051;-66
2023/11/30 06:12:28;;;;;;;12.52;7.10;;;;;;;-3.02;100.00;95722.22;5045453;28;20515;-64
2023/11/30 06:14:55;;;;;;;14.82;9.48;;;;;;;-2.91;100.00;95721.59;5036042;28;20037;-64
2023/11/30 06:17:22;;;;;;;11.25;5.93;;;;;;;-2.81;100.00;95723.81;5044003;28;20325;-64
2023/11/30 06:19:48;;;;;;;15.38;8.15;;;;;;;-2.71;100.00;95722.56;5037181;28;20481;-64
2023/11/30 06:22:15;;;;;;;10.77;6.57;;;;;;;-2.63;100.00;95711.72;5031296;28;20087;-64
2023/11/30 06:24:41;;;;;;;13.52;6.78;;;;;;;-2.64;100.00;95707.47;5047237;28;20257;-63
2023/11/30 06:27:08;;;;;;;11.20;6.90;;;;;;;-2.65;100.00;95706.63;5049202;28;20040;-63
2023/11/30 06:29:35;;;;;;;11.15;6.32;;;;;;;-2.61;100.00;95712.34;5043327;28;20049;-64
2023/11/30 06:32:02;;;;;;;11.38;6.47;;;;;;;-2.54;100.00;95713.13;5043951;28;20045;-63
2023/11/30 06:34:29;;;;;;;12.55;7.22;;;;;;;-2.36;100.00;95711.66;5047286;28;20794;-64
2023/11/30 06:36:55;;;;;;;15.75;7.93;;;;;;;-2.58;100.00;95693.34;5045321;28;20037;-64
2023/11/30 06:39:22;;;;;;;29.13;15.45;;;;;;;-2.59;100.00;95680.34;5026496;28;20053;-64
2023/11/30 06:41:49;;;;;;;20.30;10.18;;;;;;;-2.68;100.00;95675.28;5035440;28;20045;-64
2023/11/30 06:44:20;;;;;;;38.33;19.27;;;;;;;-2.67;100.00;95681.38;5038853;28;20049;-64
2023/11/30 06:46:46;;;;;;;20.50;13.43;;;;;;;-2.72;100.00;95686.50;5045319;28;20048;-62
2023/11/30 06:49:13;;;;;;;30.17;17.52;;;;;;;-2.83;100.00;95685.31;5046641;28;20040;-63
2023/11/30 06:51:40;;;;;;;18.58;10.07;;;;;;;-2.83;100.00;95677.34;5057173;28;20076;-63
2023/11/30 06:54:06;;;;;;;18.20;9.00;;;;;;;-2.94;100.00;95678.81;5041516;28;20050;-63
2023/11/30 06:56:33;;;;;;;14.82;6.65;;;;;;;-2.77;100.00;95684.44;5039230;28;20473;-63
2023/11/30 06:58:59;;;;;;;17.70;8.60;;;;;;;-2.66;100.00;95701.56;5042151;28;20777;-64
2023/11/30 07:01:27;;;;;;;23.75;12.35;;;;;;;-2.56;100.00;95709.06;5041815;28;20041;-63
2023/11/30 07:03:54;;;;;;;22.85;12.65;;;;;;;-2.64;100.00;95694.22;5036026;28;20664;-63
2023/11/30 07:06:22;;;;;;;15.63;8.75;;;;;;;-2.68;100.00;95685.06;5032695;28;20475;-63
2023/11/30 07:08:49;;;;;;;22.60;11.07;;;;;;;-2.65;100.00;95682.78;5039085;28;20131;-63
2023/11/30 07:11:15;;;;;;;16.35;9.27;;;;;;;-2.58;100.00;95679.31;5047641;28;20045;-63
2023/11/30 07:13:42;;;;;;;15.38;8.02;;;;;;;-2.38;100.00;95669.44;5040570;28;20504;-63
2023/11/30 07:16:09;;;;;;;12.73;7.10;;;;;;;-2.38;100.00;95668.59;5052174;28;20033;-63
2023/11/30 07:18:36;;;;;;;12.00;6.95;;;;;;;-2.34;100.00;95669.81;5039112;28;20497;-63
2023/11/30 07:21:04;;;;;;;15.30;8.65;;;;;;;-2.58;100.00;95685.41;5039444;28;20041;-63
2023/11/30 07:23:32;;;;;;;20.92;12.32;;;;;;;-2.60;100.00;95692.78;5047245;28;20044;-64
2023/11/30 07:25:58;;;;;;;15.48;8.10;;;;;;;-2.86;100.00;95694.47;5039787;28;20661;-63
2023/11/30 07:28:26;;;;;;;17.67;9.65;;;;;;;-2.76;100.00;95696.69;5045833;28;20041;-63
2023/11/30 07:30:52;;;;;;;12.38;7.30;;;;;;;-2.76;100.00;95699.34;5051195;28;20474;-62
2023/11/30 07:33:19;;;;;;;15.48;9.18;;;;;;;-2.64;100.00;95692.38;5038445;28;20099;-63
2023/11/30 07:35:45;;;;;;;19.52;9.90;;;;;;;-2.64;100.00;95688.91;5046978;28;20041;-63
2023/11/30 07:38:12;;;;;;;17.95;8.80;;;;;;;-2.66;100.00;95699.72;5039706;28;20048;-63
2023/11/30 07:40:38;;;;;;;12.88;7.45;;;;;;;-2.59;100.00;95705.00;5037849;28;20044;-63
2023/11/30 07:43:05;;;;;;;15.70;7.93;;;;;;;-2.60;100.00;95703.38;5044524;28;20053;-64
2023/11/30 07:45:32;;;;;;;14.60;7.35;;;;;;;-2.52;100.00;95694.34;5040240;28;20052;-63
2023/11/30 07:47:59;;;;;;;14.25;8.27;;;;;;;-2.16;100.00;95694.81;5039444;28;20041;-63
2023/11/30 07:50:27;;;;;;;14.98;8.25;;;;;;;-2.06;100.00;95683.75;5036169;28;20443;-63
2023/11/30 07:52:53;;;;;;;12.10;8.02;;;;;;;-1.96;100.00;95684.91;5039548;28;20918;-63
2023/11/30 07:55:20;;;;;;;15.63;9.23;;;;;;;-1.90;100.00;95685.88;5051073;28;20037;-63
2023/11/30 07:57:48;;;;;;;14.95;8.57;;;;;;;-1.86;100.00;95676.47;5032754;28;20037;-63
2023/11/30 08:00:15;;;;;;;13.65;8.27;;;;;;;-1.85;100.00;95677.25;5044180;28;20835;-64
2023/11/30 08:02:42;;;;;;;16.77;8.02;;;;;;;-2.00;100.00;95672.25;5043947;28;21229;-63
2023/11/30 08:05:12;;;;;;;12.50;7.35;;;;;;;-2.04;100.00;95663.94;5041379;28;20055;-63
2023/11/30 08:07:38;;;;;;;12.32;7.53;;;;;;;-2.02;100.00;95661.91;5035872;28;20572;-63
2023/11/30 08:10:06;;;;;;;12.95;8.00;;;;;;;-2.05;100.00;95667.63;5038854;28;20400;-63
2023/11/30 08:12:33;;;;;;;17.88;8.93;;;;;;;-2.08;100.00;95668.03;5045519;28;20192;-63
2023/11/30 08:14:59;;;;;;;11.38;7.43;;;;;;;-2.00;100.00;95673.09;5051275;28;20072;-63
2023/11/30 08:17:26;;;;;;;13.82;8.45;;;;;;;-1.89;100.00;95681.38;5035533;28;20163;-63
2023/11/30 08:19:52;;;;;;;15.50;9.02;;;;;;;-1.78;100.00;95683.34;5041847;28;20186;-63
2023/11/30 08:22:19;;;;;;;12.13;7.75;;;;;;;-1.63;100.00;95674.25;5036920;28;20049;-63
2023/11/30 08:24:45;;;;;;;12.95;7.80;;;;;;;-1.65;100.00;95666.53;5038669;28;20659;-63
2023/11/30 08:27:12;;;;;;;12.75;7.75;;;;;;;-1.64;100.00;95665.50;5046795;28;20047;-63
2023/11/30 08:29:40;;;;;;;13.20;7.30;;;;;;;-1.57;100.00;95658.28;5034598;28;20326;-62
2023/11/30 08:32:06;;;;;;;13.10;7.75;;;;;;;-1.39;100.00;95651.41;5047962;28;20033;-64
2023/11/30 08:34:33;;;;;;;10.50;6.97;;;;;;;-1.40;100.00;95651.63;5045250;28;20032;-65
2023/11/30 08:37:00;;;;;;;13.68;8.35;;;;;;;-1.30;100.00;95651.91;5031475;28;20701;-65
2023/11/30 08:39:28;;;;;;;15.85;8.73;;;;;;;-1.20;100.00;95654.91;5042743;28;20044;-65
2023/11/30 08:41:55;;;;;;;14.45;7.18;;;;;;;-1.03;100.00;95656.97;5040341;28;20054;-63
2023/11/30 08:44:25;;;;;;;12.85;7.13;;;;;;;-1.01;100.00;95648.75;5043649;28;20041;-62
2023/11/30 08:46:52;;;;;;;11.50;6.85;;;;;;;-0.92;100.00;95652.78;5037823;28;20033;-62
2023/11/30 08:49:19;;;;;;;13.18;6.78;;;;;;;-0.93;100.00;95648.47;5038271;28;20042;-62
2023/11/30 08:51:45;;;;;;;12.85;7.35;;;;;;;-0.85;100.00;95650.03;5032541;28;20046;-63
2023/11/30 08:54:12;;;;;;;14.77;7.75;;;;;;;-0.71;100.00;95650.69;5033698;28;20048;-62
2023/11/30 08:56:39;;;;;;;14.52;7.90;;;;;;;-0.65;100.00;95647.16;5050943;28;20051;-63
2023/11/30 08:59:05;;;;;;;14.60;8.85;;;;;;;-0.49;100.00;95653.69;5050208;28;20484;-63
2023/11/30 09:01:32;;;;;;;14.35;8.13;;;;;;;-0.44;100.00;95653.03;5046159;28;20539;-64
2023/11/30 09:04:08;;;;;;;16.42;7.78;;;;;;;-0.35;100.00;95643.69;5028830;28;20059;-65
2023/11/30 09:06:35;;;;;;;13.48;7.90;;;;;;;-0.30;100.00;95648.34;5038530;28;20067;-63
2023/11/30 09:09:02;;;;;;;13.73;8.23;;;;;;;-0.27;100.00;95640.72;5046278;28;20508;-63
2023/11/30 09:11:30;;;;;;;13.68;8.05;;;;;;;-0.10;100.00;95640.09;5049607;28;20051;-63
2023/11/30 09:13:57;;;;;;;11.57;7.45;;;;;;;0.01;100.00;95630.53;5041432;28;20043;-63
2023/11/30 09:16:25;;;;;;;13.25;7.30;;;;;;;0.09;100.00;95630.19;5042997;28;20437;-64
2023/11/30 09:18:55;;;;;;;13.18;7.90;;;;;;;0.21;100.00;95637.38;5036466;28;20484;-64
2023/11/30 09:21:21;;;;;;;13.98;7.55;;;;;;;0.24;100.00;95651.06;5034805;28;20064;-64
2023/11/30 09:23:50;;;;;;;10.18;6.40;;;;;;;0.28;100.00;95646.06;5036157;28;20048;-63
2023/11/30 09:26:20;;;;;;;11.93;7.43;;;;;;;0.43;100.00;95656.28;5038425;28;20042;-63
2023/11/30 09:28:46;;;;;;;13.43;7.57;;;;;;;0.46;100.00;95644.34;5041360;28;20552;-63
2023/11/30 09:31:13;;;;;;;12.40;7.53;;;;;;;0.48;100.00;95647.63;5041042;28;20041;-64
2023/11/30 09:33:39;;;;;;;12.32;6.95;;;;;;;0.56;100.00;95652.59;5035610;28;20059;-64
2023/11/30 09:36:07;;;;;;;15.63;8.20;;;;;;;0.66;100.00;95643.22;5037626;28;20057;-63
2023/11/30 09:38:34;;;;;;;11.45;6.82;;;;;;;0.83;100.00;95640.66;5033618;28;20037;-62
2023/11/30 09:41:05;;;;;;;11.82;7.10;;;;;;;0.82;100.00;95633.72;5040370;28;20524;-64
2023/11/30 09:43:33;;;;;;;10.50;6.80;;;;;;;0.90;100.00;95638.69;5043424;28;20118;-64
2023/11/30 09:46:00;;;;;;;11.68;6.28;;;;;;;0.97;100.00;95643.91;5031206;28;20095;-63
2023/11/30 09:48:26;;;;;;;12.55;6.72;;;;;;;0.96;100.00;95640.41;5039708;28;20112;-64
2023/11/30 09:50:53;;;;;;;12.32;6.80;;;;;;;1.01;100.00;95637.88;5040905;28;20535;-64
2023/11/30 09:53:21;;;;;;;11.32;6.75;;;;;;;0.98;100.00;95637.53;5041569;28;20714;-64
2023/11/30 09:55:47;;;;;;;11.35;6.55;;;;;;;0.95;100.00;95630.81;5037991;28;20096;-64
2023/11/30 09:58:15;;;;;;;11.35;6.55;;;;;;;1.07;100.00;95633.44;5039334;28;20123;-64
2023/11/30 10:00:42;;;;;;;10.63;6.20;;;;;;;1.04;100.00;95633.94;5048698;28;20092;-64
2023/11/30 10:03:09;;;;;;;10.05;5.72;;;;;;;0.99;100.00;95623.16;5051928;28;20068;-64
2023/11/30 10:05:35;;;;;;;11.02;6.00;;;;;;;0.92;100.00;95619.81;5043354;28;20667;-63
2023/11/30 10:08:02;;;;;;;8.85;5.65;;;;;;;1.02;100.00;95604.84;5035261;28;20029;-64
2023/11/30 10:10:29;;;;;;;12.10;6.57;;;;;;;1.10;100.00;95602.88;5037597;28;20049;-65
2023/11/30 10:12:56;;;;;;;9.43;5.97;;;;;;;1.20;100.00;95591.59;5040228;28;20040;-63
2023/11/30 10:15:22;;;;;;;11.27;5.82;;;;;;;1.25;100.00;95597.03;5042403;28;20575;-63
2023/11/30 10:17:49;;;;;;;10.07;5.97;;;;;;;1.33;100.00;95585.19;5037715;28;20500;-63
2023/11/30 10:20:18;;;;;;;11.60;5.93;;;;;;;1.46;100.00;95571.56;5050765;28;20043;-64
2023/11/30 10:22:45;;;;;;;12.70;5.60;;;;;;;1.56;100.00;95578.94;5041720;28;20148;-64
2023/11/30 10:25:12;;;;;;;7.90;4.95;;;;;;;1.56;100.00;95576.28;5034987;28;20048;-65
2023/11/30 10:27:41;;;;;;;10.25;6.45;;;;;;;1.63;100.00;95584.13;5036235;28;20611;-62
2023/11/30 10:30:10;;;;;;;9.20;5.60;;;;;;;1.68;100.00;95581.56;5042249;28;20030;-63
2023/11/30 10:32:39;;;;;;;11.60;5.88;;;;;;;1.65;100.00;95593.53;5047419;28;20053;-66
2023/11/30 10:35:11;;;;;;;9.60;5.57;;;;;;;1.74;100.00;95590.47;5052943;28;20665;-63
2023/11/30 10:37:47;;;;;;;9.68;5.50;;;;;;;1.68;100.00;95585.03;5037790;28;20052;-64
2023/11/30 10:40:17;;;;;;;8.63;5.40;;;;;;;1.68;100.00;95576.22;5049377;28;20629;-64
2023/11/30 10:42:48;;;;;;;10.00;4.97;;;;;;;1.38;100.00;95564.75;5049327;28;20110;-65
2023/11/30 10:45:15;;;;;;;;;;;;;;;1.39;100.00;95562.88;5034607;28;20049;-63
2023/11/30 10:47:45;;;;;;;9.75;4.88;;;;;;;1.28;100.00;95560.03;5043247;28;19920;-64
2023/11/30 10:50:12;;;;;;;8.95;4.70;;;;;;;1.16;100.00;95560.09;5043555;28;20553;-63
2023/11/30 10:52:43;;;;;;;8.77;4.78;;;;;;;1.30;100.00;95568.59;5032318;28;20048;-65
2023/11/30 10:55:17;;;;;;;9.02;5.35;;;;;;;1.26;100.00;95564.78;5045514;28;20052;-65
2023/11/30 10:57:44;;;;;;;8.25;4.72;;;;;;;1.32;100.00;95563.03;5032143;28;20045;-64
2023/11/30 11:00:17;;;;;;;11.02;5.60;;;;;;;1.36;100.00;95561.50;5027931;28;20088;-64
2023/11/30 11:02:47;;;;;;;9.00;5.03;;;;;;;1.38;100.00;95548.75;5031059;28;20045;-66
2023/11/30 11:05:15;;;;;;;9.27;4.72;;;;;;;1.40;100.00;95543.19;5043504;28;20041;-63
2023/11/30 11:07:49;;;;;;;7.75;4.65;;;;;;;1.48;100.00;95548.16;5041982;28;20071;-65
2023/11/30 11:10:21;;;;;;;8.25;4.53;;;;;;;1.50;100.00;95551.38;5031916;28;20048;-65
2023/11/30 11:12:51;;;;;;;9.52;4.85;;;;;;;1.41;100.00;95553.59;5026359;28;20048;-62
2023/11/30 11:15:22;;;;;;;7.93;4.60;;;;;;;1.38;100.00;95554.09;5033375;28;20041;-61
2023/11/30 11:17:54;;;;;;;9.23;4.10;;;;;;;1.46;100.00;95560.91;5035890;28;20049;-65
2023/11/30 11:20:26;;;;;;;7.70;4.20;;;;;;;1.50;100.00;95563.88;5023913;28;20133;-66
2023/11/30 11:23:07;;;;;;;7.95;4.20;;;;;;;1.41;100.00;95561.59;5025886;28;20045;-63